Stangelville, Wisconsin
Current Conditions -  °F | °C
As of 4:53 AM on Tuesday 21 Oct 2014 (Local Time) from KGRB Reporting Station
Overcast Overcast  
Wind Chill: 38°   Ceiling: 2800
Heat Index: 44°   Visibility: 10mi
Dew Point: 38°   Wind: 13mph
Humidity: 79%   Direction: 360°N
Pressure: 30.11"   Gusts: NA
Location:  44.363°N, 87.8227°W
Report Text: KGRB 210953Z AUTO 36011KT 10SM OVC028 07/03 A3011 RMK AO2 SLP201 T00670033
Loading
Personal Weather Stations






























Interactive Weather Map
Tropical Storm Tracking
New forecast layout! Learn more

10-Day Weather Forecast

Advertisements
Track Severe Weather on mobile